Time;durP1;ratioP1;P1;durP2;ratioP2;P2;SDS_P1;SDS_P2;PMS_P1;PMS_P2;Temp;Humidity;BMP_temperature;BMP_pressure;BME280_temperature;BME280_humidity;BME280_pressure;Samples;Min_cycle;Max_cycle;Signal;HPM_P1;HPM_P2
2022/09/24 00:00:52;;;;;;;6.77;4.43;;;;;;;11.04;79.44;95347.34;4938728;28;20199;-80
2022/09/24 00:03:22;;;;;;;4.70;4.30;;;;;;;11.11;79.05;95337.13;4977339;28;20556;-79
2022/09/24 00:05:47;;;;;;;5.97;4.17;;;;;;;11.09;78.87;95339.09;4955014;28;20244;-79
2022/09/24 00:08:14;;;;;;;4.73;4.33;;;;;;;11.10;79.01;95340.72;4969269;28;20658;-79
2022/09/24 00:10:41;;;;;;;4.47;3.83;;;;;;;11.12;78.74;95341.38;4953059;28;20189;-80
2022/09/24 00:13:08;;;;;;;5.30;4.30;;;;;;;11.12;78.65;95338.75;4940801;28;20650;-80
2022/09/24 00:15:36;;;;;;;4.40;4.00;;;;;;;11.11;78.64;95332.75;4934589;28;20702;-80
2022/09/24 00:18:01;;;;;;;5.83;4.43;;;;;;;11.15;78.65;95328.88;4943225;28;20197;-80
2022/09/24 00:20:29;;;;;;;6.47;4.00;;;;;;;11.21;78.18;95333.44;4952739;28;20203;-80
2022/09/24 00:22:54;;;;;;;4.37;3.93;;;;;;;11.18;78.12;95327.75;4969684;28;20289;-80
2022/09/24 00:28:03;;;;;;;4.73;4.00;;;;;;;11.18;77.81;95327.75;4966255;28;20196;-80
2022/09/24 00:30:29;;;;;;;4.03;3.60;;;;;;;11.20;77.14;95329.22;4962815;28;20185;-79
2022/09/24 00:32:54;;;;;;;4.20;3.80;;;;;;;11.19;77.18;95326.78;4962532;28;20199;-79
2022/09/24 00:35:19;;;;;;;6.83;3.93;;;;;;;11.20;76.71;95323.22;4968810;28;20606;-79
2022/09/24 00:37:44;;;;;;;4.73;3.60;;;;;;;11.21;76.55;95322.22;4936590;28;20209;-80
2022/09/24 00:40:10;;;;;;;4.47;4.07;;;;;;;11.21;76.78;95317.03;4952925;28;20192;-80
2022/09/24 00:42:35;;;;;;;5.23;3.80;;;;;;;11.19;76.68;95306.00;4955874;28;20629;-79
2022/09/24 00:45:04;;;;;;;6.27;4.17;;;;;;;11.21;76.45;95304.84;4959638;28;20725;-80
2022/09/24 00:47:38;;;;;;;5.40;3.90;;;;;;;11.23;76.18;95302.94;4979227;28;20204;-79
2022/09/24 00:50:39;;;;;;;6.33;3.90;;;;;;;11.17;76.33;95300.13;4962278;28;20231;-80
2022/09/24 00:53:08;;;;;;;4.40;3.73;;;;;;;11.12;76.48;95292.00;4934247;29;20210;-80
2022/09/24 00:55:36;;;;;;;5.43;3.70;;;;;;;11.10;76.49;95299.94;4901836;29;20193;-79
2022/09/24 00:58:03;;;;;;;4.67;3.43;;;;;;;11.10;75.90;95293.94;4916652;29;20195;-80
2022/09/24 01:00:29;;;;;;;4.87;3.53;;;;;;;11.11;75.97;95296.38;4931086;29;20190;-80
2022/09/24 01:03:06;;;;;;;4.40;4.00;;;;;;;11.15;75.74;95295.09;4934078;29;20198;-80
2022/09/24 01:05:31;;;;;;;5.27;3.87;;;;;;;11.05;75.98;95292.63;4931224;29;20214;-80
2022/09/24 01:07:57;;;;;;;4.60;3.77;;;;;;;11.05;75.94;95290.03;4921781;29;20190;-81
2022/09/24 01:10:57;;;;;;;4.87;3.70;;;;;;;11.09;75.48;95287.13;4919448;29;20201;-81
2022/09/24 01:13:47;;;;;;;4.03;3.47;;;;;;;10.98;75.78;95294.22;4913646;29;20209;-80
2022/09/24 01:16:17;;;;;;;3.97;3.67;;;;;;;11.01;75.98;95285.28;4918728;29;20222;-81
2022/09/24 01:19:00;;;;;;;5.77;3.77;;;;;;;10.97;75.86;95278.78;4935798;29;20201;-80
2022/09/24 01:21:33;;;;;;;5.60;3.67;;;;;;;10.89;76.01;95271.78;4935097;29;20301;-80
2022/09/24 01:24:07;;;;;;;5.03;3.90;;;;;;;10.88;76.29;95279.75;4898110;29;20201;-81
2022/09/24 01:26:38;;;;;;;5.10;3.83;;;;;;;10.90;76.08;95276.00;4929656;29;20319;-80
2022/09/24 01:29:22;;;;;;;5.23;3.60;;;;;;;10.87;76.01;95273.72;4927731;28;20219;-80
2022/09/24 01:32:04;;;;;;;5.70;4.13;;;;;;;10.83;76.33;95271.59;4955026;28;20188;-80
2022/09/24 01:34:37;;;;;;;3.83;3.53;;;;;;;10.86;76.50;95261.69;4960951;28;20248;-81
2022/09/24 01:37:03;;;;;;;6.03;3.60;;;;;;;10.87;76.10;95257.31;4939392;28;20233;-81
2022/09/24 01:39:30;;;;;;;6.00;3.50;;;;;;;10.81;76.42;95252.75;4939844;28;20189;-80
2022/09/24 01:41:56;;;;;;;8.50;3.60;;;;;;;10.79;76.42;95250.31;4959991;28;20200;-81
2022/09/24 01:44:21;;;;;;;6.33;4.17;;;;;;;10.86;75.85;95248.69;4964614;28;20193;-80
2022/09/24 01:46:47;;;;;;;5.10;3.47;;;;;;;10.87;76.12;95250.34;4965949;28;20221;-81
2022/09/24 01:49:12;;;;;;;6.27;4.57;;;;;;;10.88;76.13;95241.59;4953557;28;20235;-81
2022/09/24 01:51:43;;;;;;;6.53;4.10;;;;;;;10.92;76.36;95235.09;4971683;28;20193;-81
2022/09/24 01:54:22;;;;;;;5.20;4.47;;;;;;;11.01;76.08;95239.34;4972293;28;20216;-80
2022/09/24 01:56:52;;;;;;;5.40;4.77;;;;;;;11.06;75.88;95236.28;4961178;28;20213;-80
2022/09/24 01:59:39;;;;;;;8.03;5.03;;;;;;;11.10;75.88;95231.56;4954626;28;20185;-80
2022/09/24 02:02:15;;;;;;;5.60;5.00;;;;;;;11.12;76.01;95227.03;4966653;28;20757;-80
2022/09/24 02:04:44;;;;;;;7.17;4.33;;;;;;;11.13;76.05;95221.69;4967265;28;20199;-79
2022/09/24 02:07:13;;;;;;;5.00;4.60;;;;;;;11.19;75.97;95222.81;4971933;28;20216;-79
2022/09/24 02:09:40;;;;;;;8.20;4.77;;;;;;;11.14;76.42;95225.09;4970901;28;20231;-80
2022/09/24 02:12:16;;;;;;;5.90;5.30;;;;;;;11.10;77.01;95231.56;4951168;28;20191;-80
2022/09/24 02:14:53;;;;;;;8.47;5.50;;;;;;;11.15;76.73;95231.91;4963673;28;20204;-80
2022/09/24 02:17:21;;;;;;;6.07;5.43;;;;;;;11.16;76.86;95236.16;4969561;28;20212;-79
2022/09/24 02:19:48;;;;;;;9.07;5.60;;;;;;;11.22;76.96;95228.53;4960198;28;20196;-79
2022/09/24 02:22:14;;;;;;;7.17;5.43;;;;;;;11.18;77.13;95223.78;4938415;28;20287;-80
2022/09/24 02:24:51;;;;;;;7.03;5.63;;;;;;;11.19;77.57;95228.03;4954939;28;20292;-80
2022/09/24 02:27:17;;;;;;;6.97;6.10;;;;;;;11.19;77.73;95230.63;4958794;28;20213;-79
2022/09/24 02:29:43;;;;;;;8.10;6.53;;;;;;;11.15;78.64;95219.75;4962274;28;20192;-79
2022/09/24 02:32:10;;;;;;;7.63;5.87;;;;;;;11.13;78.54;95205.25;4940492;28;20635;-79
2022/09/24 02:34:40;;;;;;;7.20;6.17;;;;;;;11.12;78.46;95211.44;4969878;28;20299;-79
2022/09/24 02:37:08;;;;;;;9.50;6.80;;;;;;;11.12;79.07;95208.84;4967141;28;20220;-79
2022/09/24 02:39:35;;;;;;;11.17;6.57;;;;;;;11.13;79.17;95207.84;4954337;28;20196;-80
2022/09/24 02:42:01;;;;;;;9.40;6.00;;;;;;;11.16;79.12;95212.75;4966906;28;20193;-80
2022/09/24 02:44:26;;;;;;;7.43;5.73;;;;;;;11.18;79.42;95221.19;4946977;28;20677;-80
2022/09/24 02:46:51;;;;;;;10.03;6.10;;;;;;;11.17;79.14;95223.00;4959439;28;20216;-79
2022/09/24 02:49:17;;;;;;;8.43;6.27;;;;;;;11.15;79.62;95221.53;4957536;28;20557;-79
2022/09/24 02:51:42;;;;;;;7.20;6.50;;;;;;;11.20;79.42;95225.25;4938349;29;20283;-79
2022/09/24 02:54:08;;;;;;;7.23;5.90;;;;;;;11.17;79.53;95229.97;4941020;28;20192;-80
2022/09/24 02:56:34;;;;;;;7.53;6.23;;;;;;;11.19;79.82;95225.41;4968190;28;20298;-80
2022/09/24 02:59:01;;;;;;;7.63;6.80;;;;;;;11.20;79.76;95224.44;4944832;28;20287;-80
2022/09/24 03:01:26;;;;;;;9.27;6.60;;;;;;;11.22;79.39;95210.34;4964326;28;20184;-79
2022/09/24 03:03:52;;;;;;;8.93;6.00;;;;;;;11.25;79.70;95201.41;4951654;28;20255;-79
2022/09/24 03:06:17;;;;;;;12.00;6.60;;;;;;;11.32;79.35;95205.00;4970031;28;20216;-79
2022/09/24 03:08:43;;;;;;;9.43;6.73;;;;;;;11.30;79.38;95199.13;4969825;28;20196;-80
2022/09/24 03:11:09;;;;;;;8.57;6.73;;;;;;;11.37;79.32;95200.09;4966951;28;20192;-80
2022/09/24 03:13:35;;;;;;;8.87;6.43;;;;;;;11.38;79.24;95193.94;4963546;28;20200;-80
2022/09/24 03:16:01;;;;;;;8.67;5.97;;;;;;;11.39;79.31;95194.75;4943928;28;20254;-81
2022/09/24 03:18:26;;;;;;;7.80;6.27;;;;;;;11.35;79.59;95199.47;4957440;28;20185;-80
2022/09/24 03:20:56;;;;;;;8.10;5.77;;;;;;;11.42;79.16;95195.25;4954481;28;20196;-81
2022/09/24 03:23:22;;;;;;;7.40;6.03;;;;;;;11.37;79.39;95188.91;4967421;28;20192;-79
2022/09/24 03:25:47;;;;;;;9.70;6.03;;;;;;;11.35;79.46;95184.69;4950270;28;20216;-79
2022/09/24 03:28:12;;;;;;;7.63;5.73;;;;;;;11.34;79.50;95182.25;4966325;28;20668;-80
2022/09/24 03:33:22;;;;;;;7.13;5.87;;;;;;;11.32;79.86;95189.41;4957522;28;20215;-80
2022/09/24 03:35:47;;;;;;;7.97;5.77;;;;;;;11.33;79.65;95189.22;4937278;28;20639;-79
2022/09/24 03:38:12;;;;;;;9.73;6.83;;;;;;;11.29;79.99;95190.50;4953518;28;20224;-80
2022/09/24 03:40:38;;;;;;;7.23;6.53;;;;;;;11.33;79.71;95194.44;4956520;28;20196;-79
2022/09/24 03:43:03;;;;;;;8.10;6.07;;;;;;;11.32;79.82;95202.38;4959729;28;20188;-79
2022/09/24 03:45:28;;;;;;;8.03;5.97;;;;;;;11.33;79.90;95201.41;4946010;28;20216;-80
2022/09/24 03:47:54;;;;;;;9.10;6.03;;;;;;;11.40;79.26;95199.00;4966259;28;20187;-79
2022/09/24 03:50:19;;;;;;;8.90;6.60;;;;;;;11.38;79.32;95196.53;4968952;28;20263;-79
2022/09/24 03:52:45;;;;;;;7.17;6.13;;;;;;;11.48;79.07;95193.78;4970329;28;20199;-79
2022/09/24 03:55:10;;;;;;;6.67;5.97;;;;;;;11.44;79.32;95180.28;4966142;28;20196;-79
2022/09/24 03:57:35;;;;;;;9.37;6.27;;;;;;;11.41;79.46;95185.03;4963101;28;20247;-79
2022/09/24 04:00:01;;;;;;;6.83;5.90;;;;;;;11.41;79.29;95178.03;4960056;28;20196;-78
2022/09/24 04:02:26;;;;;;;7.17;6.47;;;;;;;11.35;80.23;95178.66;4957423;28;20581;-79
2022/09/24 04:04:51;;;;;;;8.37;6.70;;;;;;;11.37;79.76;95181.91;4937440;28;20653;-79
2022/09/24 04:07:17;;;;;;;6.57;5.87;;;;;;;11.38;79.88;95182.72;4952584;28;20217;-79
2022/09/24 04:09:42;;;;;;;12.90;6.83;;;;;;;11.42;79.85;95179.66;4955433;28;20204;-79
2022/09/24 04:12:08;;;;;;;7.67;6.40;;;;;;;11.48;79.31;95178.97;4958547;28;20196;-79
2022/09/24 04:14:33;;;;;;;9.23;5.87;;;;;;;11.44;79.40;95187.28;4961082;28;20666;-79
2022/09/24 04:16:58;;;;;;;8.00;6.30;;;;;;;11.44;79.62;95180.28;4964173;28;20209;-79
2022/09/24 04:19:25;;;;;;;8.70;5.77;;;;;;;11.42;79.99;95178.84;4968317;28;20200;-79
2022/09/24 04:21:51;;;;;;;8.33;6.13;;;;;;;11.42;79.77;95171.03;4974973;28;20214;-79
2022/09/24 04:24:16;;;;;;;11.47;6.13;;;;;;;11.41;79.79;95180.63;4955131;28;20201;-79
2022/09/24 04:26:41;;;;;;;7.10;6.37;;;;;;;11.46;79.44;95167.13;4968276;28;20299;-79
2022/09/24 04:29:07;;;;;;;8.60;6.13;;;;;;;11.44;79.59;95161.28;4964118;28;20691;-79
2022/09/24 04:31:32;;;;;;;10.00;5.70;;;;;;;11.42;79.44;95171.84;4960981;28;20250;-78
2022/09/24 04:33:58;;;;;;;7.80;5.97;;;;;;;11.37;79.83;95161.13;4940788;29;20659;-81
2022/09/24 04:36:23;;;;;;;6.70;5.17;;;;;;;11.40;79.61;95160.81;4938865;28;20228;-80
2022/09/24 04:38:49;;;;;;;9.77;5.30;;;;;;;11.35;80.03;95163.88;4957781;28;20228;-80
2022/09/24 04:41:17;;;;;;;8.10;5.70;;;;;;;11.32;79.95;95160.81;4960880;28;20216;-80
2022/09/24 04:43:45;;;;;;;8.30;5.43;;;;;;;11.33;80.15;95162.41;4964881;28;20192;-80
2022/09/24 04:46:11;;;;;;;7.60;6.47;;;;;;;11.29;80.02;95169.72;4953655;28;20208;-80
2022/09/24 04:48:37;;;;;;;6.17;5.57;;;;;;;11.29;80.38;95171.50;4954770;28;20657;-80
2022/09/24 04:51:04;;;;;;;6.03;4.97;;;;;;;11.25;80.36;95162.41;4973367;28;20203;-80
2022/09/24 04:53:29;;;;;;;8.20;6.00;;;;;;;11.22;80.27;95173.09;4955419;28;20210;-80
2022/09/24 04:55:55;;;;;;;5.63;5.07;;;;;;;11.22;80.20;95167.91;4950942;28;20850;-80
2022/09/24 04:58:20;;;;;;;7.17;5.87;;;;;;;11.18;80.39;95170.03;4964814;28;20188;-80
2022/09/24 05:00:46;;;;;;;6.00;5.40;;;;;;;11.15;80.91;95164.34;4961900;28;20209;-80
2022/09/24 05:03:11;;;;;;;6.97;5.17;;;;;;;11.11;80.61;95169.03;4957645;28;20193;-80
2022/09/24 05:05:37;;;;;;;6.13;5.03;;;;;;;11.10;80.73;95169.19;4955504;28;20224;-80
2022/09/24 05:08:03;;;;;;;5.43;4.70;;;;;;;11.09;80.90;95172.78;4941328;28;20204;-80
2022/09/24 05:10:30;;;;;;;7.37;4.83;;;;;;;11.06;81.01;95174.72;4959870;28;20271;-81
2022/09/24 05:12:55;;;;;;;6.73;5.00;;;;;;;11.04;80.83;95173.25;4946834;28;20200;-78
2022/09/24 05:15:21;;;;;;;5.73;4.43;;;;;;;11.02;81.06;95173.41;4966208;28;20196;-78
2022/09/24 05:17:46;;;;;;;6.00;4.70;;;;;;;11.01;81.03;95176.97;4970090;28;20192;-80
2022/09/24 05:20:15;;;;;;;5.90;4.50;;;;;;;11.00;81.40;95170.16;4941720;28;20196;-81
2022/09/24 05:22:42;;;;;;;6.70;5.93;;;;;;;11.03;81.26;95167.22;4971118;28;20651;-80
2022/09/24 05:25:07;;;;;;;10.13;5.77;;;;;;;11.04;80.76;95168.88;4967368;28;20240;-81
2022/09/24 05:27:33;;;;;;;5.87;4.73;;;;;;;11.06;80.54;95174.72;4949198;28;20217;-80
2022/09/24 05:29:59;;;;;;;5.30;4.60;;;;;;;11.08;80.42;95182.38;4946293;28;20196;-80
2022/09/24 05:32:24;;;;;;;6.90;4.50;;;;;;;11.12;80.02;95182.84;4958204;28;20208;-80
2022/09/24 05:34:51;;;;;;;6.27;4.10;;;;;;;11.12;80.07;95186.25;4938774;28;20194;-80
2022/09/24 05:37:17;;;;;;;6.20;4.27;;;;;;;11.17;79.52;95191.78;4955629;28;20296;-81
2022/09/24 05:39:42;;;;;;;6.43;3.73;;;;;;;11.20;79.50;95182.84;4958994;28;20226;-80
2022/09/24 05:42:13;;;;;;;6.00;4.87;;;;;;;11.26;79.45;95185.63;4945721;28;20200;-81
2022/09/24 05:44:40;;;;;;;5.10;4.60;;;;;;;11.33;79.26;95186.63;4964645;28;20196;-81
2022/09/24 05:47:05;;;;;;;4.53;4.13;;;;;;;11.36;79.01;95180.28;4951567;28;20229;-80
2022/09/24 05:49:31;;;;;;;5.30;4.20;;;;;;;11.41;79.18;95188.44;4969649;28;20669;-79
2022/09/24 05:51:56;;;;;;;6.77;4.00;;;;;;;11.46;78.84;95190.53;4971106;28;20260;-80
2022/09/24 05:54:21;;;;;;;6.30;4.37;;;;;;;11.47;79.32;95182.56;4939118;28;20193;-82
2022/09/24 05:56:47;;;;;;;5.13;4.63;;;;;;;11.49;78.97;95178.03;4964704;28;20844;-80
2022/09/24 05:59:12;;;;;;;4.23;3.90;;;;;;;11.52;78.81;95185.50;4961612;28;20192;-80
2022/09/24 06:01:37;;;;;;;4.33;3.90;;;;;;;11.53;78.94;95192.31;4942117;28;20193;-80
2022/09/24 06:04:03;;;;;;;5.50;4.40;;;;;;;11.55;79.91;95190.38;4953767;28;20303;-80
2022/09/24 06:06:28;;;;;;;4.57;4.17;;;;;;;11.61;79.45;95178.50;4953448;28;20216;-80
2022/09/24 06:08:54;;;;;;;5.10;3.97;;;;;;;11.66;79.69;95185.81;4957498;28;20200;-80
2022/09/24 06:11:21;;;;;;;4.87;4.27;;;;;;;11.70;79.82;95187.94;4948391;28;20196;-79
2022/09/24 06:13:46;;;;;;;7.67;4.60;;;;;;;11.75;80.05;95197.84;4952918;28;20184;-80
2022/09/24 06:16:12;;;;;;;4.73;3.93;;;;;;;11.85;80.09;95201.16;4964961;28;20208;-80
2022/09/24 06:18:39;;;;;;;7.07;4.37;;;;;;;11.97;79.65;95202.44;4968479;28;20219;-80
2022/09/24 06:21:06;;;;;;;6.03;4.63;;;;;;;12.05;79.77;95192.00;4950945;28;20226;-80
2022/09/24 06:23:32;;;;;;;5.83;4.73;;;;;;;12.18;79.51;95192.28;4954561;28;20232;-81
2022/09/24 06:25:57;;;;;;;5.90;4.10;;;;;;;12.25;79.33;95204.66;4947767;28;20217;-81
2022/09/24 06:28:26;;;;;;;6.97;4.50;;;;;;;12.25;79.17;95204.66;4961371;28;20260;-80
2022/09/24 06:30:52;;;;;;;5.20;4.67;;;;;;;12.28;79.31;95204.31;4973626;28;20601;-81
2022/09/24 06:33:18;;;;;;;7.03;4.53;;;;;;;12.35;79.06;95202.69;4954771;28;20737;-80
2022/09/24 06:35:44;;;;;;;7.03;4.30;;;;;;;12.42;78.85;95204.44;4937632;29;20256;-80
2022/09/24 06:38:11;;;;;;;5.67;4.03;;;;;;;12.45;79.37;95201.50;4940413;28;20208;-80
2022/09/24 06:40:37;;;;;;;8.57;4.70;;;;;;;12.50;80.15;95206.22;4943258;28;20547;-79
2022/09/24 06:43:04;;;;;;;4.80;4.40;;;;;;;12.52;80.59;95213.88;4962079;28;20177;-81
2022/09/24 06:45:29;;;;;;;5.00;3.87;;;;;;;12.62;79.94;95206.66;4959716;28;20205;-78
2022/09/24 06:47:58;;;;;;;5.90;4.40;;;;;;;12.63;80.18;95206.53;4971429;28;20204;-80
2022/09/24 06:50:26;;;;;;;4.73;4.10;;;;;;;12.52;80.80;95212.06;4953305;28;20276;-81
2022/09/24 06:52:52;;;;;;;6.50;3.90;;;;;;;12.54;80.81;95202.28;4955159;28;20192;-80
2022/09/24 06:55:18;;;;;;;5.70;3.83;;;;;;;12.69;79.85;95200.63;4960418;28;20638;-80
2022/09/24 06:57:44;;;;;;;5.33;4.30;;;;;;;12.79;79.43;95205.63;4962449;28;20209;-80
2022/09/24 07:00:11;;;;;;;9.00;4.27;;;;;;;12.68;78.50;95209.41;4949658;28;20666;-81
2022/09/24 07:02:36;;;;;;;6.60;4.23;;;;;;;12.64;78.93;95215.16;4955611;28;20196;-79
2022/09/24 07:05:01;;;;;;;6.80;4.47;;;;;;;12.85;78.32;95219.78;4952260;28;20190;-80
2022/09/24 07:07:31;;;;;;;8.60;4.70;;;;;;;12.90;77.06;95223.50;4939639;28;20209;-80
2022/09/24 07:09:58;;;;;;;4.93;4.40;;;;;;;13.05;77.20;95218.38;4958423;28;20180;-80
2022/09/24 07:12:23;;;;;;;6.67;4.80;;;;;;;13.09;76.07;95226.69;4945968;28;20180;-83
2022/09/24 07:14:48;;;;;;;5.10;4.57;;;;;;;13.20;76.56;95224.53;4964538;28;20288;-87
2022/09/24 07:17:14;;;;;;;5.47;4.83;;;;;;;13.24;76.14;95224.97;4968175;28;20228;-82
2022/09/24 07:19:39;;;;;;;5.10;4.03;;;;;;;13.33;75.51;95221.34;4954616;28;20569;-82
2022/09/24 07:22:04;;;;;;;5.47;4.23;;;;;;;13.34;75.28;95230.81;4968117;28;20203;-82
2022/09/24 07:24:30;;;;;;;5.33;4.67;;;;;;;13.50;75.15;95219.44;4964849;28;20187;-81
2022/09/24 07:26:55;;;;;;;6.10;4.90;;;;;;;13.61;74.58;95229.50;4959723;28;20220;-82
2022/09/24 07:29:21;;;;;;;6.27;5.00;;;;;;;13.61;75.27;95232.13;4959949;28;20715;-82
2022/09/24 07:31:46;;;;;;;4.50;4.10;;;;;;;13.64;75.32;95233.56;4939717;28;20192;-83
2022/09/24 07:34:12;;;;;;;10.93;6.10;;;;;;;13.67;75.25;95235.81;4952603;28;20196;-83
2022/09/24 07:36:38;;;;;;;9.17;7.13;;;;;;;13.67;74.76;95230.59;4953543;28;20228;-82
2022/09/24 07:39:04;;;;;;;7.47;5.63;;;;;;;13.79;74.45;95234.44;4957298;28;20645;-81
2022/09/24 07:41:29;;;;;;;6.97;5.00;;;;;;;13.81;74.80;95241.09;4959829;28;20422;-81
2022/09/24 07:43:54;;;;;;;7.23;4.97;;;;;;;13.78;73.90;95246.66;4947890;28;20200;-81
2022/09/24 07:46:20;;;;;;;5.33;4.33;;;;;;;13.73;74.88;95238.53;4934185;28;20208;-81
2022/09/24 07:48:48;;;;;;;6.73;4.97;;;;;;;13.78;74.90;95243.22;4969527;28;20192;-80
2022/09/24 07:51:13;;;;;;;6.85;5.63;;;;;;;13.84;75.03;95251.16;4952731;28;20267;-80
2022/09/24 07:53:38;;;;;;;6.67;5.33;;;;;;;13.76;75.23;95242.59;4950460;28;20266;-80
2022/09/24 07:56:04;;;;;;;5.57;5.00;;;;;;;13.76;76.28;95250.41;4963374;28;20977;-80
2022/09/24 07:58:30;;;;;;;5.90;4.67;;;;;;;13.78;76.18;95248.44;4952416;28;20192;-81
2022/09/24 08:00:59;;;;;;;6.07;5.30;;;;;;;13.80;76.20;95249.91;4985068;28;20196;-80
2022/09/24 08:03:25;;;;;;;9.27;5.70;;;;;;;13.70;76.90;95245.91;4957748;28;20760;-81
2022/09/24 08:05:55;;;;;;;7.27;5.83;;;;;;;13.67;76.54;95249.66;4955699;28;20216;-80
2022/09/24 08:08:20;;;;;;;8.20;6.20;;;;;;;13.74;77.03;95253.22;4958518;28;20656;-81
2022/09/24 08:10:45;;;;;;;5.93;5.33;;;;;;;13.61;77.36;95255.59;4965416;28;20239;-80
2022/09/24 08:13:11;;;;;;;9.43;6.17;;;;;;;13.51;78.56;95247.97;4962080;28;20188;-80
2022/09/24 08:15:36;;;;;;;10.73;6.63;;;;;;;13.62;78.48;95254.59;4958373;28;20181;-81
2022/09/24 08:18:02;;;;;;;8.33;6.40;;;;;;;13.51;79.39;95253.19;4957017;28;20240;-79
2022/09/24 08:20:28;;;;;;;8.97;7.90;;;;;;;13.50;79.97;95259.38;4958407;28;20239;-80
2022/09/24 08:22:53;;;;;;;8.70;7.90;;;;;;;13.48;80.29;95257.94;4960074;28;20276;-85
2022/09/24 08:25:19;;;;;;;7.77;7.07;;;;;;;13.52;80.30;95251.41;4965907;28;20293;-87
2022/09/24 08:27:44;;;;;;;8.50;7.60;;;;;;;13.52;80.84;95261.84;4949418;28;20196;-87
2022/09/24 08:30:10;;;;;;;9.60;7.27;;;;;;;13.53;81.60;95266.88;4976689;28;20311;-87
2022/09/24 08:32:35;;;;;;;10.43;7.20;;;;;;;13.47;82.11;95270.19;4971054;28;20209;-86
2022/09/24 08:35:00;;;;;;;12.30;9.10;;;;;;;13.47;82.78;95264.97;4965253;28;20193;-84
2022/09/24 08:37:27;;;;;;;8.60;7.23;;;;;;;13.49;83.29;95262.19;4972785;28;20220;-86
2022/09/24 08:39:52;;;;;;;10.80;7.87;;;;;;;13.52;83.63;95259.25;4954702;28;20259;-83
2022/09/24 08:42:38;;;;;;;10.67;8.37;;;;;;;13.61;83.28;95268.63;4965824;28;20594;-85
2022/09/24 08:47:53;;;;;;;11.73;6.90;;;;;;;13.89;83.08;95263.72;4971902;28;20187;-84
2022/09/24 08:50:26;;;;;;;7.73;7.03;;;;;;;13.99;82.55;95266.88;4966491;28;20205;-83
2022/09/24 08:52:57;;;;;;;9.30;8.30;;;;;;;13.89;83.65;95267.13;4952438;28;20236;-81
2022/09/24 08:55:40;;;;;;;12.83;10.10;;;;;;;13.84;84.90;95266.84;4965017;28;20736;-82
2022/09/24 08:58:34;;;;;;;9.20;7.87;;;;;;;14.02;84.23;95268.34;4952727;28;20181;-81
2022/09/24 09:01:19;;;;;;;7.80;7.10;;;;;;;14.07;83.81;95266.84;4969457;28;20275;-81
2022/09/24 09:03:52;;;;;;;9.02;7.90;;;;;;;14.12;83.32;95271.50;4968077;28;20662;-80
2022/09/24 09:06:43;;;;;;;8.93;7.50;;;;;;;14.13;84.25;95263.53;4953069;28;20216;-79
2022/09/24 09:09:16;;;;;;;8.02;7.03;;;;;;;14.36;83.50;95262.66;4947807;28;20189;-81
2022/09/24 09:12:03;;;;;;;7.68;6.90;;;;;;;14.47;81.82;95270.09;4952173;28;20235;-80
2022/09/24 09:14:47;;;;;;;7.90;7.07;;;;;;;14.42;82.05;95264.56;4954783;28;20551;-81
2022/09/24 09:17:25;;;;;;;8.25;7.15;;;;;;;14.31;83.65;95268.44;4970843;28;20204;-80
2022/09/24 09:19:59;;;;;;;9.87;7.53;;;;;;;14.17;84.84;95269.19;4952680;28;20199;-80
2022/09/24 09:22:29;;;;;;;7.63;6.83;;;;;;;14.42;84.13;95273.22;4951469;28;20191;-80
2022/09/24 09:25:01;;;;;;;8.95;7.18;;;;;;;14.50;84.68;95272.38;4947986;28;20200;-81
2022/09/24 09:27:28;;;;;;;8.18;7.18;;;;;;;14.47;85.59;95274.50;4966563;28;20212;-83
2022/09/24 09:29:56;;;;;;;8.27;7.55;;;;;;;14.22;86.47;95277.28;4968539;28;20254;-81
2022/09/24 09:32:30;;;;;;;8.40;7.70;;;;;;;14.52;85.44;95272.19;4940708;28;20617;-81
2022/09/24 09:35:05;;;;;;;9.60;8.38;;;;;;;14.54;85.44;95276.22;4970543;28;20219;-81
2022/09/24 09:37:45;;;;;;;8.35;7.55;;;;;;;14.96;83.32;95273.00;4954224;28;20244;-81
2022/09/24 09:40:34;;;;;;;8.45;7.40;;;;;;;15.25;82.50;95274.78;4963007;28;20197;-78
2022/09/24 09:43:06;;;;;;;7.97;7.18;;;;;;;15.14;83.99;95275.25;4944367;28;20207;-79
2022/09/24 09:45:38;;;;;;;7.93;6.78;;;;;;;15.23;82.52;95262.88;4957067;28;20216;-82
2022/09/24 09:48:03;;;;;;;8.68;6.45;;;;;;;15.51;82.91;95263.81;4937191;28;20214;-84
2022/09/24 09:50:35;;;;;;;7.75;7.05;;;;;;;15.73;83.43;95266.50;4944640;28;20193;-83
2022/09/24 09:53:01;;;;;;;9.13;6.57;;;;;;;15.78;83.44;95275.38;4966812;28;20625;-82
2022/09/24 09:55:30;;;;;;;5.93;4.97;;;;;;;15.69;83.74;95281.75;4963284;28;20247;-82
2022/09/24 09:58:31;;;;;;;3.70;3.30;;;;;;;15.52;83.55;95280.31;4967291;28;20195;-85
2022/09/24 10:01:08;;;;;;;3.60;3.30;;;;;;;15.35;83.92;95273.66;4929613;29;20744;-83
2022/09/24 10:03:48;;;;;;;3.70;3.40;;;;;;;15.22;83.54;95271.72;4926421;29;20206;-84
2022/09/24 10:06:43;;;;;;;3.60;3.22;;;;;;;14.80;84.76;95267.97;4938088;29;20232;-83
2022/09/24 10:09:16;;;;;;;5.28;3.40;;;;;;;14.61;86.88;95274.53;4885318;29;20233;-84
2022/09/24 10:11:41;;;;;;;3.33;2.83;;;;;;;14.51;87.32;95270.56;4872262;29;20380;-84
2022/09/24 10:14:12;;;;;;;6.15;3.28;;;;;;;14.38;87.40;95271.13;4885184;29;20716;-84
2022/09/24 10:16:39;;;;;;;4.32;3.10;;;;;;;14.29;88.05;95273.00;4884627;29;20307;-84
2022/09/24 10:19:15;;;;;;;3.28;3.00;;;;;;;14.15;89.03;95269.38;4875526;29;20203;-83
2022/09/24 10:21:40;;;;;;;4.50;3.00;;;;;;;14.37;87.78;95265.09;4872557;29;20253;-83
2022/09/24 10:24:15;;;;;;;3.47;3.17;;;;;;;14.39;89.38;95270.94;4909018;29;20227;-84
2022/09/24 10:26:42;;;;;;;5.65;3.63;;;;;;;14.37;90.09;95262.47;4872791;29;20287;-84
2022/09/24 10:32:22;;;;;;;4.57;3.47;;;;;;;14.94;88.69;95267.16;4907526;29;20317;-87
2022/09/24 10:34:55;;;;;;;3.60;3.30;;;;;;;15.04;88.87;95266.06;4903022;29;20225;-83
2022/09/24 10:37:20;;;;;;;3.15;2.85;;;;;;;15.33;87.00;95275.66;4918057;29;20230;-85
2022/09/24 10:40:15;;;;;;;3.22;3.03;;;;;;;15.33;85.71;95271.25;4927152;29;20746;-85
2022/09/24 10:42:41;;;;;;;9.52;7.97;;;;;;;15.44;87.28;95276.00;4895865;29;20674;-84
2022/09/24 10:45:12;;;;;;;11.50;8.48;;;;;;;15.27;90.25;95274.59;4932940;28;20193;-84
2022/09/24 10:47:51;;;;;;;13.50;9.18;;;;;;;15.45;89.11;95272.38;4957719;28;20219;-84
2022/09/24 10:50:53;;;;;;;14.38;10.30;;;;;;;15.12;90.11;95264.16;4961432;28;20184;-85
2022/09/24 10:53:27;;;;;;;8.35;7.47;;;;;;;15.39;88.11;95269.72;4912219;29;20200;-84
2022/09/24 10:56:02;;;;;;;13.63;8.73;;;;;;;15.13;89.09;95271.00;4927500;29;20205;-84
2022/09/24 10:58:59;;;;;;;9.88;7.65;;;;;;;14.80;90.82;95267.97;4931655;29;20197;-83
2022/09/24 11:01:28;;;;;;;8.68;7.65;;;;;;;14.84;91.20;95260.56;4909114;29;20208;-83
2022/09/24 11:04:12;;;;;;;8.82;7.18;;;;;;;14.86;90.53;95262.00;4946970;29;20205;-85
2022/09/24 11:06:47;;;;;;;10.02;7.85;;;;;;;14.78;92.25;95272.56;4928342;29;20225;-83
2022/09/24 11:09:35;;;;;;;8.07;7.00;;;;;;;14.48;92.42;95268.28;4925371;29;20287;-84
2022/09/24 11:12:08;;;;;;;12.07;7.63;;;;;;;14.62;90.74;95262.28;4942537;29;20197;-82
2022/09/24 11:14:39;;;;;;;10.63;8.23;;;;;;;14.49;90.84;95268.13;4907857;29;20236;-86
2022/09/24 11:17:28;;;;;;;10.02;8.77;;;;;;;14.33;91.39;95268.25;4924961;29;20276;-86
2022/09/24 11:20:15;;;;;;;10.85;9.75;;;;;;;14.07;94.03;95259.00;4958026;28;20189;-85
2022/09/24 11:23:08;;;;;;;12.32;11.05;;;;;;;14.32;94.16;95262.22;4958477;28;20198;-83
2022/09/24 11:25:53;;;;;;;10.93;9.88;;;;;;;14.33;94.48;95263.03;4936369;29;20216;-84
2022/09/24 11:28:44;;;;;;;9.13;8.13;;;;;;;14.34;95.28;95259.41;4930733;28;20188;-83
2022/09/24 11:31:24;;;;;;;7.80;6.55;;;;;;;14.37;94.11;95267.69;4952711;28;20188;-83
2022/09/24 11:34:11;;;;;;;8.00;7.30;;;;;;;14.35;93.24;95264.47;4962407;28;20200;-81
2022/09/24 11:36:54;;;;;;;8.60;7.70;;;;;;;14.29;94.26;95269.56;4958447;28;20593;-81
2022/09/24 11:39:34;;;;;;;7.13;5.72;;;;;;;14.15;93.51;95265.97;4964854;28;20181;-81
2022/09/24 11:42:15;;;;;;;6.63;4.93;;;;;;;14.19;91.59;95267.22;4959183;28;20181;-80
2022/09/24 11:45:17;;;;;;;6.80;5.72;;;;;;;13.99;90.65;95250.41;4950837;28;20192;-82
2022/09/24 11:47:56;;;;;;;6.57;5.97;;;;;;;14.25;90.96;95248.22;4954884;28;20286;-81
2022/09/24 11:50:32;;;;;;;9.25;6.25;;;;;;;14.47;90.93;95251.00;4978159;28;20219;-82
2022/09/24 11:53:32;;;;;;;7.67;6.50;;;;;;;14.45;92.20;95254.59;4952638;28;20220;-81
2022/09/24 11:56:01;;;;;;;7.15;6.45;;;;;;;14.43;93.08;95253.13;4947443;28;20261;-83